createdAt,value
2022-11-27T00:01:59.607Z,6.10
2022-11-27T00:04:30.441Z,6.10
2022-11-27T00:07:02.271Z,6.20
2022-11-27T00:09:35.338Z,6.20
2022-11-27T00:12:05.737Z,6.20
2022-11-27T00:14:36.155Z,6.20
2022-11-27T00:17:06.403Z,6.10
2022-11-27T00:19:36.784Z,6.10
2022-11-27T00:22:07.471Z,6.10
2022-11-27T00:24:39.621Z,6.10
2022-11-27T00:27:10.063Z,6.10
2022-11-27T00:29:40.724Z,6.00
2022-11-27T00:32:11.176Z,6.10
2022-11-27T00:34:41.647Z,6.10
2022-11-27T00:37:12.805Z,6.10
2022-11-27T00:39:45.481Z,6.10
2022-11-27T00:42:16.641Z,6.10
2022-11-27T00:44:47.503Z,6.10
2022-11-27T00:47:17.694Z,6.20
2022-11-27T00:49:47.911Z,6.20
2022-11-27T00:52:19.078Z,6.10
2022-11-27T00:54:51.484Z,6.20
2022-11-27T00:57:22.586Z,6.20
2022-11-27T00:59:52.742Z,6.20
2022-11-27T01:02:23.320Z,6.20
2022-11-27T01:04:53.676Z,6.20
2022-11-27T01:07:23.727Z,6.20
2022-11-27T01:09:55.736Z,6.10
2022-11-27T01:12:27.435Z,6.10
2022-11-27T01:14:57.711Z,6.10
2022-11-27T01:17:28.082Z,6.10
2022-11-27T01:19:58.607Z,6.00
2022-11-27T01:22:30.178Z,6.10
2022-11-27T01:25:01.881Z,6.10
2022-11-27T01:27:32.023Z,6.10
2022-11-27T01:30:02.630Z,6.00
2022-11-27T01:32:32.966Z,6.00
2022-11-27T01:35:03.024Z,6.00
2022-11-27T01:37:39.731Z,5.90
2022-11-27T01:40:16.369Z,5.90
2022-11-27T01:42:51.924Z,5.90
2022-11-27T01:45:28.296Z,5.90
2022-11-27T01:48:02.943Z,5.90
2022-11-27T01:50:43.566Z,5.80
2022-11-27T01:53:22.182Z,5.90
2022-11-27T01:56:00.330Z,5.80
2022-11-27T01:58:35.092Z,5.70
2022-11-27T02:01:15.505Z,5.80
2022-11-27T02:03:47.025Z,5.80
2022-11-27T02:06:17.849Z,5.90
2022-11-27T02:08:48.722Z,6.00
2022-11-27T02:11:32.453Z,5.90
2022-11-27T02:14:11.217Z,5.90
2022-11-27T02:16:50.644Z,5.80
2022-11-27T02:19:36.202Z,5.70
2022-11-27T02:22:13.205Z,5.70
2022-11-27T02:24:57.317Z,5.60
2022-11-27T02:28:03.470Z,5.50
2022-11-27T02:30:44.566Z,5.30
2022-11-27T02:33:20.540Z,5.30
2022-11-27T02:36:04.381Z,5.20
2022-11-27T02:38:40.546Z,5.20
2022-11-27T02:41:15.898Z,5.20
2022-11-27T02:43:51.205Z,5.10
2022-11-27T02:46:33.594Z,5.00
2022-11-27T02:49:09.271Z,5.00
2022-11-27T02:51:46.808Z,5.00
2022-11-27T02:54:23.633Z,4.90
2022-11-27T02:56:56.387Z,4.90
2022-11-27T02:59:30.540Z,4.80
2022-11-27T03:02:07.310Z,4.90
2022-11-27T03:04:44.584Z,4.90
2022-11-27T03:07:20.599Z,4.90
2022-11-27T03:09:53.665Z,4.90
2022-11-27T03:12:24.262Z,4.80
2022-11-27T03:14:54.874Z,4.70
2022-11-27T03:17:38.384Z,4.70
2022-11-27T03:20:15.008Z,4.60
2022-11-27T03:22:45.624Z,4.60
2022-11-27T03:25:16.893Z,4.60
2022-11-27T03:27:52.864Z,4.70
2022-11-27T03:30:22.939Z,4.70
2022-11-27T03:32:55.064Z,4.70
2022-11-27T03:35:29.386Z,4.80
2022-11-27T03:38:02.517Z,4.90
2022-11-27T03:40:42.672Z,5.00
2022-11-27T03:43:16.911Z,5.00
2022-11-27T03:45:53.871Z,5.10
2022-11-27T03:48:34.543Z,5.00
2022-11-27T03:51:13.876Z,5.10
2022-11-27T03:53:54.695Z,5.00
2022-11-27T03:56:31.860Z,5.00
2022-11-27T03:59:07.042Z,5.10
2022-11-27T04:01:37.300Z,5.10
2022-11-27T04:04:09.359Z,5.20
2022-11-27T04:06:39.498Z,5.20
2022-11-27T04:09:09.588Z,5.30
2022-11-27T04:11:39.679Z,5.30
2022-11-27T04:14:09.837Z,5.30
2022-11-27T04:16:40.166Z,5.30
2022-11-27T04:19:11.824Z,5.30
2022-11-27T04:21:41.873Z,5.30
2022-11-27T04:24:11.952Z,5.30
2022-11-27T04:26:42.025Z,5.30
2022-11-27T04:29:12.078Z,5.30
2022-11-27T04:31:42.375Z,5.30
2022-11-27T04:34:16.177Z,5.30
2022-11-27T04:36:46.872Z,5.30
2022-11-27T04:39:17.484Z,5.30
2022-11-27T04:41:47.617Z,5.30
2022-11-27T04:44:18.138Z,5.30
2022-11-27T04:46:48.225Z,5.30
2022-11-27T04:49:20.212Z,5.30
2022-11-27T04:51:50.951Z,5.30
2022-11-27T04:54:21.614Z,5.20
2022-11-27T04:56:51.658Z,5.20
2022-11-27T04:59:21.921Z,5.20
2022-11-27T05:01:52.135Z,5.20
2022-11-27T05:04:24.066Z,5.20
2022-11-27T05:06:54.104Z,5.20
2022-11-27T05:09:24.152Z,5.10
2022-11-27T05:11:54.238Z,5.10
2022-11-27T05:14:29.816Z,5.10
2022-11-27T05:17:01.237Z,5.00
2022-11-27T05:19:33.662Z,5.00
2022-11-27T05:22:03.828Z,5.00
2022-11-27T05:24:33.885Z,4.90
2022-11-27T05:27:04.008Z,4.90
2022-11-27T05:29:35.003Z,4.90
2022-11-27T05:32:05.065Z,4.80
2022-11-27T05:34:36.775Z,4.70
2022-11-27T05:37:06.806Z,4.60
2022-11-27T05:39:36.955Z,4.50
2022-11-27T05:42:07.228Z,4.50
2022-11-27T05:44:37.521Z,4.40
2022-11-27T05:47:07.790Z,4.30
2022-11-27T05:49:39.900Z,4.30
2022-11-27T05:52:10.045Z,4.20
2022-11-27T05:54:40.477Z,4.20
2022-11-27T05:57:10.673Z,4.20
2022-11-27T05:59:40.791Z,4.20
2022-11-27T06:02:15.091Z,4.20
2022-11-27T06:04:50.115Z,4.30
2022-11-27T06:07:20.633Z,4.30
2022-11-27T06:09:50.867Z,4.30
2022-11-27T06:12:21.058Z,4.30
2022-11-27T06:14:51.276Z,4.20
2022-11-27T06:17:21.328Z,4.20
2022-11-27T06:19:53.669Z,4.10
2022-11-27T06:22:23.714Z,4.10
2022-11-27T06:24:53.786Z,4.00
2022-11-27T06:27:24.179Z,4.00
2022-11-27T06:29:54.775Z,3.90
2022-11-27T06:32:24.856Z,3.90
2022-11-27T06:34:56.835Z,3.90
2022-11-27T06:37:27.270Z,3.80
2022-11-27T06:39:57.368Z,3.70
2022-11-27T06:42:27.678Z,3.60
2022-11-27T06:44:57.775Z,3.60
2022-11-27T06:47:27.864Z,3.60
2022-11-27T06:49:59.974Z,3.60
2022-11-27T06:52:33.624Z,3.40
2022-11-27T06:55:08.268Z,3.30
2022-11-27T06:57:38.355Z,3.30
2022-11-27T07:00:09.940Z,3.40
2022-11-27T07:02:40.039Z,3.40
2022-11-27T07:05:12.659Z,3.50
2022-11-27T07:07:44.005Z,3.50
2022-11-27T07:10:14.697Z,3.60
2022-11-27T07:12:44.714Z,3.60
2022-11-27T07:15:14.807Z,3.60
2022-11-27T07:17:44.801Z,3.50
2022-11-27T07:20:16.957Z,3.50
2022-11-27T07:22:47.001Z,3.50
2022-11-27T07:25:17.064Z,3.50
2022-11-27T07:27:47.267Z,3.50
2022-11-27T07:30:18.078Z,3.50
2022-11-27T07:32:48.101Z,3.50
2022-11-27T07:35:20.484Z,3.40
2022-11-27T07:37:50.459Z,3.40
2022-11-27T07:40:20.657Z,3.40
2022-11-27T07:42:50.798Z,3.40
2022-11-27T07:45:20.969Z,3.30
2022-11-27T07:47:51.089Z,3.30
2022-11-27T07:50:23.084Z,3.20
2022-11-27T07:52:53.434Z,3.10
2022-11-27T07:55:23.765Z,3.10
2022-11-27T07:57:54.178Z,3.10
2022-11-27T08:00:24.832Z,3.10
2022-11-27T08:02:54.843Z,3.00
2022-11-27T08:05:26.522Z,3.00
2022-11-27T08:07:56.817Z,3.10
2022-11-27T08:10:27.050Z,3.10
2022-11-27T08:12:57.089Z,3.10
2022-11-27T08:15:27.142Z,3.20
2022-11-27T08:17:57.244Z,3.10
2022-11-27T08:20:28.906Z,3.10
2022-11-27T08:23:02.664Z,3.00
2022-11-27T08:25:33.412Z,3.00
2022-11-27T08:28:03.465Z,2.90
2022-11-27T08:30:33.624Z,2.90
2022-11-27T08:33:03.780Z,2.90
2022-11-27T08:35:35.983Z,2.80
2022-11-27T08:38:06.172Z,2.70
2022-11-27T08:40:36.238Z,2.50
2022-11-27T08:43:06.352Z,2.50
2022-11-27T08:45:36.485Z,2.50
2022-11-27T08:48:07.717Z,2.50
2022-11-27T08:50:40.378Z,2.50
2022-11-27T08:53:10.650Z,2.40
2022-11-27T08:55:40.954Z,2.40
2022-11-27T08:58:11.333Z,2.30
2022-11-27T09:00:42.506Z,2.20
2022-11-27T09:03:13.862Z,2.20
2022-11-27T09:05:46.634Z,2.20
2022-11-27T09:08:20.815Z,2.20
2022-11-27T09:10:50.944Z,2.10
2022-11-27T09:13:21.007Z,2.20
2022-11-27T09:15:51.064Z,2.10
2022-11-27T09:18:21.475Z,2.20
2022-11-27T09:21:00.259Z,2.30
2022-11-27T09:23:30.547Z,2.30
2022-11-27T09:26:02.075Z,2.40
2022-11-27T09:28:32.575Z,2.40
2022-11-27T09:31:04.269Z,2.40
2022-11-27T09:33:35.815Z,2.50
2022-11-27T09:36:10.645Z,2.50
2022-11-27T09:38:40.968Z,2.50
2022-11-27T09:41:26.325Z,2.60
2022-11-27T09:44:00.302Z,2.60
2022-11-27T09:46:33.957Z,2.60
2022-11-27T09:49:09.081Z,2.60
2022-11-27T09:51:45.962Z,2.60
2022-11-27T09:54:21.123Z,2.60
2022-11-27T09:56:54.267Z,2.60
2022-11-27T09:59:27.738Z,2.70
2022-11-27T10:01:57.924Z,2.70
2022-11-27T10:04:30.376Z,2.70
2022-11-27T10:07:23.256Z,2.80
2022-11-27T10:10:05.723Z,2.80
2022-11-27T10:12:46.746Z,2.90
2022-11-27T10:15:22.029Z,2.90
2022-11-27T10:17:59.106Z,2.90
2022-11-27T10:20:34.372Z,3.00
2022-11-27T10:23:12.659Z,2.90
2022-11-27T10:25:47.632Z,3.00
2022-11-27T10:28:28.820Z,3.20
2022-11-27T10:31:03.023Z,3.20
2022-11-27T10:33:41.009Z,3.30
2022-11-27T10:36:17.309Z,3.30
2022-11-27T10:38:51.119Z,3.30
2022-11-27T10:41:48.185Z,3.30
2022-11-27T10:44:29.099Z,3.30
2022-11-27T10:47:03.689Z,3.30
2022-11-27T10:49:34.221Z,3.30
2022-11-27T10:52:04.523Z,3.20
2022-11-27T10:54:39.576Z,3.20
2022-11-27T10:57:33.176Z,3.30
2022-11-27T11:00:11.553Z,3.40
2022-11-27T11:02:42.616Z,3.50
2022-11-27T11:08:07.490Z,3.60
2022-11-27T11:10:40.622Z,3.70
2022-11-27T11:13:22.051Z,3.70
2022-11-27T11:16:01.002Z,3.80
2022-11-27T11:18:34.134Z,3.80
2022-11-27T11:21:07.794Z,3.70
2022-11-27T11:23:40.575Z,3.60
2022-11-27T11:26:26.468Z,3.60
2022-11-27T11:28:58.834Z,3.50
2022-11-27T11:31:33.334Z,3.40
2022-11-27T11:34:05.929Z,3.40
2022-11-27T11:36:36.244Z,3.30
2022-11-27T11:39:06.578Z,3.20
2022-11-27T11:41:42.026Z,3.20
2022-11-27T11:44:27.761Z,3.30
2022-11-27T11:46:57.876Z,3.30
2022-11-27T11:49:29.989Z,3.30
2022-11-27T11:52:22.714Z,3.40
2022-11-27T11:55:05.781Z,3.40
2022-11-27T11:58:16.553Z,3.60
2022-11-27T12:01:19.404Z,3.70
2022-11-27T12:03:58.772Z,3.80
2022-11-27T12:06:49.570Z,3.80
2022-11-27T12:09:39.123Z,3.90
2022-11-27T12:12:19.386Z,3.90
2022-11-27T12:14:55.057Z,4.00
2022-11-27T12:17:46.861Z,4.00
2022-11-27T12:20:22.608Z,4.00
2022-11-27T12:23:39.975Z,3.90
2022-11-27T12:26:19.869Z,3.90
2022-11-27T12:29:05.801Z,3.80
2022-11-27T12:31:54.276Z,3.80
2022-11-27T12:34:36.221Z,3.80
2022-11-27T12:37:27.098Z,3.60
2022-11-27T12:40:10.923Z,3.40
2022-11-27T12:42:50.464Z,3.30
2022-11-27T12:45:24.304Z,3.10
2022-11-27T12:48:00.523Z,2.80
2022-11-27T12:50:38.775Z,2.60
2022-11-27T12:53:18.887Z,2.40
2022-11-27T12:56:01.379Z,2.20
2022-11-27T12:58:35.929Z,2.00
2022-11-27T13:01:12.341Z,1.90
2022-11-27T13:03:50.806Z,1.80
2022-11-27T13:06:26.937Z,1.80
2022-11-27T13:08:59.873Z,1.80
2022-11-27T13:11:34.806Z,1.70
2022-11-27T13:14:09.969Z,1.70
2022-11-27T13:16:46.306Z,1.60
2022-11-27T13:19:29.161Z,1.40
2022-11-27T13:22:02.163Z,1.40
2022-11-27T13:24:32.932Z,1.50
2022-11-27T13:27:08.026Z,1.80
2022-11-27T13:29:45.642Z,2.00
2022-11-27T13:32:24.665Z,2.10
2022-11-27T13:34:55.540Z,2.10
2022-11-27T13:37:34.016Z,2.20
2022-11-27T13:40:08.216Z,2.40
2022-11-27T13:42:39.406Z,2.60
2022-11-27T13:45:12.168Z,2.80
2022-11-27T13:47:45.092Z,2.90
2022-11-27T13:50:18.955Z,3.10
2022-11-27T13:53:00.661Z,3.20
2022-11-27T13:55:32.698Z,3.30
2022-11-27T13:58:04.387Z,3.40
2022-11-27T14:00:37.523Z,3.60
2022-11-27T14:03:11.232Z,3.80
2022-11-27T14:05:44.496Z,4.10
2022-11-27T14:08:25.394Z,4.20
2022-11-27T14:10:59.760Z,4.40
2022-11-27T14:13:40.186Z,4.50
2022-11-27T14:16:28.976Z,4.70
2022-11-27T14:19:01.534Z,4.80
2022-11-27T14:21:42.464Z,4.90
2022-11-27T14:24:47.739Z,5.10
2022-11-27T14:27:22.899Z,5.30
2022-11-27T14:29:53.652Z,5.50
2022-11-27T14:32:24.408Z,5.60
2022-11-27T14:34:54.827Z,5.70
2022-11-27T14:37:28.579Z,5.80
2022-11-27T14:40:00.167Z,5.90
2022-11-27T14:42:34.119Z,5.90
2022-11-27T14:45:10.283Z,6.00
2022-11-27T14:47:43.292Z,6.00
2022-11-27T14:50:16.917Z,6.10
2022-11-27T14:52:51.803Z,6.10
2022-11-27T14:55:24.386Z,6.20
2022-11-27T14:57:54.865Z,6.30
2022-11-27T15:00:27.780Z,6.40
2022-11-27T15:02:58.147Z,6.50
2022-11-27T15:05:30.848Z,6.60
2022-11-27T15:08:03.270Z,6.70
2022-11-27T15:10:39.486Z,6.70
2022-11-27T15:13:21.063Z,6.70
2022-11-27T15:16:00.669Z,6.80
2022-11-27T15:18:32.602Z,6.80
2022-11-27T15:21:04.913Z,6.90
2022-11-27T15:23:36.610Z,6.90
2022-11-27T15:26:15.935Z,6.90
2022-11-27T15:28:54.068Z,6.90
2022-11-27T15:31:30.058Z,7.00
2022-11-27T15:34:03.851Z,7.10
2022-11-27T15:36:44.829Z,7.20
2022-11-27T15:39:37.681Z,7.50
2022-11-27T15:42:15.186Z,8.00
2022-11-27T15:44:45.266Z,8.30
2022-11-27T15:47:24.874Z,8.60
2022-11-27T15:49:55.310Z,8.80
2022-11-27T15:52:26.488Z,9.00
2022-11-27T15:54:57.270Z,9.30
2022-11-27T15:57:28.921Z,9.60
2022-11-27T16:00:04.762Z,10.00
2022-11-27T16:02:34.822Z,10.30
2022-11-27T16:05:06.249Z,10.50
2022-11-27T16:07:37.842Z,10.50
2022-11-27T16:10:09.477Z,10.50
2022-11-27T16:12:41.116Z,10.40
2022-11-27T16:15:11.878Z,10.30
2022-11-27T16:17:41.927Z,10.20
2022-11-27T16:20:12.927Z,10.00
2022-11-27T16:22:42.956Z,9.80
2022-11-27T16:25:13.015Z,9.70
2022-11-27T16:27:44.679Z,9.40
2022-11-27T16:30:15.450Z,9.30
2022-11-27T16:32:45.474Z,9.20
2022-11-27T16:35:15.624Z,9.10
2022-11-27T16:37:45.668Z,9.10
2022-11-27T16:40:16.903Z,9.10
2022-11-27T16:42:48.552Z,9.20
2022-11-27T16:45:18.888Z,9.20
2022-11-27T16:47:48.950Z,9.30
2022-11-27T16:50:19.185Z,9.40
2022-11-27T16:52:54.314Z,9.40
2022-11-27T16:55:25.235Z,9.40
2022-11-27T16:57:57.386Z,9.40
2022-11-27T17:00:27.432Z,9.40
2022-11-27T17:02:57.454Z,9.40
2022-11-27T17:05:28.088Z,9.50
2022-11-27T17:07:58.259Z,9.40
2022-11-27T17:10:28.405Z,9.50
2022-11-27T17:13:00.091Z,9.60
2022-11-27T17:15:30.167Z,10.00
2022-11-27T17:18:01.158Z,10.50
2022-11-27T17:20:31.195Z,10.90
2022-11-27T17:23:01.229Z,11.30
2022-11-27T17:25:33.158Z,11.60
2022-11-27T17:28:04.816Z,12.00
2022-11-27T17:30:39.097Z,12.30
2022-11-27T17:33:09.469Z,12.60
2022-11-27T17:35:39.520Z,13.10
2022-11-27T17:38:09.630Z,13.10
2022-11-27T17:40:39.723Z,13.10
2022-11-27T17:43:11.592Z,12.90
2022-11-27T17:45:43.805Z,12.80
2022-11-27T17:48:13.834Z,12.60
2022-11-27T17:50:43.898Z,12.40
2022-11-27T17:53:13.904Z,12.20
2022-11-27T17:55:44.205Z,11.90
2022-11-27T17:58:15.814Z,11.70
2022-11-27T18:00:46.361Z,11.70
2022-11-27T18:03:16.466Z,11.70
2022-11-27T18:05:46.435Z,11.90
2022-11-27T18:08:16.878Z,12.00
2022-11-27T18:10:47.073Z,12.10
2022-11-27T18:13:18.700Z,12.00
2022-11-27T18:15:49.151Z,11.80
2022-11-27T18:18:19.117Z,11.80
2022-11-27T18:20:49.184Z,11.80
2022-11-27T18:23:19.434Z,11.70
2022-11-27T18:25:49.615Z,11.50
2022-11-27T18:28:21.473Z,11.30
2022-11-27T18:30:51.595Z,11.10
2022-11-27T18:33:21.891Z,11.00
2022-11-27T18:35:55.559Z,10.80
2022-11-27T18:38:25.627Z,10.70
2022-11-27T18:40:55.678Z,10.50
2022-11-27T18:43:27.263Z,10.30
2022-11-27T18:45:57.401Z,10.10
2022-11-27T18:48:27.584Z,10.00
2022-11-27T18:51:05.123Z,9.80
2022-11-27T18:53:36.323Z,9.80
2022-11-27T18:56:07.816Z,9.70
2022-11-27T18:58:40.738Z,9.70
2022-11-27T19:01:12.665Z,9.70
2022-11-27T19:03:43.469Z,9.70
2022-11-27T19:06:18.123Z,9.70
2022-11-27T19:08:49.041Z,9.60
2022-11-27T19:11:21.093Z,9.60
2022-11-27T19:13:53.432Z,9.60
2022-11-27T19:16:25.775Z,9.60
2022-11-27T19:18:58.236Z,9.50
2022-11-27T19:21:30.514Z,9.50
2022-11-27T19:24:02.745Z,9.50
2022-11-27T19:26:34.867Z,9.50
2022-11-27T19:29:08.765Z,9.40
2022-11-27T19:31:41.346Z,9.40
2022-11-27T19:34:14.234Z,9.30
2022-11-27T19:36:44.317Z,9.30
2022-11-27T19:39:17.327Z,9.20
2022-11-27T19:41:47.428Z,9.20
2022-11-27T19:44:20.288Z,9.20
2022-11-27T19:46:50.353Z,9.10
2022-11-27T19:49:20.536Z,9.10
2022-11-27T19:51:51.678Z,9.10
2022-11-27T19:54:22.434Z,9.10
2022-11-27T19:56:53.669Z,9.00
2022-11-27T19:59:26.588Z,9.00
2022-11-27T20:01:57.013Z,8.90
2022-11-27T20:04:27.314Z,8.90
2022-11-27T20:07:02.113Z,8.80
2022-11-27T20:09:32.143Z,8.80
2022-11-27T20:12:02.289Z,8.70
2022-11-27T20:14:33.909Z,8.60
2022-11-27T20:17:04.053Z,8.60
2022-11-27T20:19:34.161Z,8.60
2022-11-27T20:22:04.413Z,8.50
2022-11-27T20:24:34.606Z,8.50
2022-11-27T20:27:05.056Z,8.40
2022-11-27T20:29:36.695Z,8.30
2022-11-27T20:32:06.994Z,8.30
2022-11-27T20:34:37.067Z,8.30
2022-11-27T20:37:07.248Z,8.20
2022-11-27T20:39:37.325Z,8.20
2022-11-27T20:42:07.574Z,8.10
2022-11-27T20:44:39.239Z,8.10
2022-11-27T20:47:09.455Z,8.00
2022-11-27T20:49:39.739Z,7.90
2022-11-27T20:52:12.064Z,7.90
2022-11-27T20:54:42.138Z,7.80
2022-11-27T20:57:14.787Z,7.80
2022-11-27T20:59:46.400Z,7.70
2022-11-27T21:02:16.988Z,7.70
2022-11-27T21:04:47.117Z,7.60
2022-11-27T21:07:17.230Z,7.60
2022-11-27T21:09:47.377Z,7.50
2022-11-27T21:12:17.459Z,7.50
2022-11-27T21:14:49.150Z,7.40
2022-11-27T21:17:19.911Z,7.40
2022-11-27T21:19:50.371Z,7.30
2022-11-27T21:22:20.454Z,7.30
2022-11-27T21:24:53.153Z,7.20
2022-11-27T21:27:28.021Z,7.20
2022-11-27T21:29:59.820Z,7.20
2022-11-27T21:32:29.941Z,7.20
2022-11-27T21:35:00.279Z,7.10
2022-11-27T21:37:30.363Z,7.00
2022-11-27T21:40:00.392Z,7.00
2022-11-27T21:42:33.254Z,7.00
2022-11-27T21:45:04.943Z,7.00
2022-11-27T21:47:36.910Z,6.90
2022-11-27T21:50:08.080Z,6.90
2022-11-27T21:52:39.078Z,6.90
2022-11-27T21:55:12.174Z,6.90
2022-11-27T21:57:42.514Z,6.80
2022-11-27T22:00:14.934Z,6.80
2022-11-27T22:02:47.029Z,6.70
2022-11-27T22:05:17.694Z,6.60
2022-11-27T22:07:47.869Z,6.60
2022-11-27T22:10:18.069Z,6.60
2022-11-27T22:12:48.124Z,6.50
2022-11-27T22:15:19.951Z,6.50
2022-11-27T22:17:50.255Z,6.50
2022-11-27T22:20:20.637Z,6.50
2022-11-27T22:22:50.767Z,6.50
2022-11-27T22:25:20.899Z,6.50
2022-11-27T22:27:50.982Z,6.50
2022-11-27T22:30:23.013Z,6.50
2022-11-27T22:32:54.868Z,6.50
2022-11-27T22:35:26.168Z,6.40
2022-11-27T22:37:56.858Z,6.40
2022-11-27T22:40:27.183Z,6.40
2022-11-27T22:42:57.339Z,6.40
2022-11-27T22:45:29.131Z,6.30
2022-11-27T22:47:59.867Z,6.30
2022-11-27T22:50:29.966Z,6.20
2022-11-27T22:53:00.195Z,6.10
2022-11-27T22:55:32.174Z,5.90
2022-11-27T22:58:02.447Z,5.80
2022-11-27T23:00:34.089Z,5.70
2022-11-27T23:03:04.592Z,5.70
2022-11-27T23:05:34.761Z,5.60
2022-11-27T23:08:04.919Z,5.60
2022-11-27T23:10:35.045Z,5.50
2022-11-27T23:13:05.255Z,5.40
2022-11-27T23:15:36.993Z,5.40
2022-11-27T23:18:07.278Z,5.40
2022-11-27T23:20:37.591Z,5.30
2022-11-27T23:23:07.678Z,5.30
2022-11-27T23:25:38.205Z,5.20
2022-11-27T23:28:08.571Z,5.20
2022-11-27T23:30:40.145Z,5.20
2022-11-27T23:33:10.209Z,5.10
2022-11-27T23:35:40.244Z,5.10
2022-11-27T23:38:10.381Z,5.10
2022-11-27T23:40:40.859Z,5.00
2022-11-27T23:43:10.919Z,5.00
2022-11-27T23:45:42.945Z,5.00
2022-11-27T23:48:13.042Z,5.00
2022-11-27T23:50:43.941Z,4.90
2022-11-27T23:53:14.218Z,4.90
2022-11-27T23:55:44.465Z,4.90
2022-11-27T23:58:14.463Z,4.90
